Time;durP1;ratioP1;P1;durP2;ratioP2;P2;SDS_P1;SDS_P2;PMS_P1;PMS_P2;Temp;Humidity;BMP_temperature;BMP_pressure;BME280_temperature;BME280_humidity;BME280_pressure;Samples;Min_cycle;Max_cycle;Signal;HPM_P1;HPM_P2
2023/07/08 10:54:16;;;;;;;4.68;2.15;;;35.00;43.30;;;;;;2325705;22;2169944;-66
2023/07/08 10:56:51;;;;;;;3.22;2.03;;;35.50;44.60;;;;;;5028107;22;20052;-70
2023/07/08 10:59:34;;;;;;;6.38;2.10;;;34.60;46.80;;;;;;5015152;22;20390;-69
2023/07/08 11:02:08;;;;;;;7.90;2.55;;;33.90;47.70;;;;;;5047855;22;20053;-77
2023/07/08 11:04:45;;;;;;;4.97;2.42;;;33.30;48.50;;;;;;5052515;22;20052;-76
2023/07/08 11:07:28;;;;;;;6.43;1.92;;;32.80;49.30;;;;;;4996017;23;20111;-72
2023/07/08 11:10:34;;;;;;;3.08;2.05;;;32.20;50.10;;;;;;4988742;28;20077;-70
2023/07/08 11:13:12;;;;;;;3.72;2.00;;;31.80;52.10;;;;;;4921781;22;20442;-68
2023/07/08 11:15:48;;;;;;;4.05;2.10;;;31.50;51.70;;;;;;5017337;23;20067;-69
2023/07/08 11:18:21;;;;;;;6.82;2.13;;;31.30;51.80;;;;;;5054263;28;20047;-75
2023/07/08 11:21:11;;;;;;;3.97;1.95;;;31.10;52.60;;;;;;5035899;28;20078;-66
2023/07/08 11:23:56;;;;;;;4.37;2.60;;;32.10;53.20;;;;;;5059655;28;20369;-71
2023/07/08 11:26:54;;;;;;;4.53;2.38;;;30.80;51.60;;;;;;5040835;28;20487;-70
2023/07/08 11:29:33;;;;;;;3.78;2.05;;;30.50;51.80;;;;;;5054499;28;20138;-71
2023/07/08 11:32:00;;;;;;;4.07;1.73;;;30.40;52.70;;;;;;5037198;28;20815;-72
2023/07/08 11:34:28;;;;;;;4.65;1.98;;;30.30;52.80;;;;;;5033308;28;20384;-69
2023/07/08 11:36:58;;;;;;;5.82;2.22;;;31.50;53.50;;;;;;5038198;28;20400;-68
2023/07/08 11:39:41;;;;;;;7.10;2.55;;;30.00;52.90;;;;;;5036019;28;20109;-70
2023/07/08 11:42:16;;;;;;;5.50;2.22;;;30.00;53.80;;;;;;5032121;28;20129;-70
2023/07/08 11:44:51;;;;;;;6.88;1.90;;;30.00;52.60;;;;;;5053157;28;20063;-73
2023/07/08 11:47:32;;;;;;;5.95;2.10;;;30.00;53.10;;;;;;5057217;28;20124;-67
2023/07/08 11:49:58;;;;;;;;;;;30.00;51.10;;;;;;5039214;28;20105;-70
2023/07/08 11:52:24;;;;;;;4.25;2.05;;;30.10;51.90;;;;;;5052867;28;19919;-69
2023/07/08 11:54:59;;;;;;;5.00;2.30;;;30.10;51.70;;;;;;5055665;28;20101;-72
2023/07/08 11:57:38;;;;;;;5.22;2.00;;;30.20;51.70;;;;;;5051680;28;20071;-71
2023/07/08 12:00:22;;;;;;;7.63;2.58;;;30.20;52.00;;;;;;5033449;28;20661;-69
2023/07/08 12:02:58;;;;;;;2.72;1.83;;;30.30;53.20;;;;;;5029486;28;20679;-68
2023/07/08 12:05:30;;;;;;;7.30;2.08;;;30.30;52.10;;;;;;5041788;28;20104;-77
2023/07/08 12:08:03;;;;;;;6.38;2.40;;;30.20;51.80;;;;;;5032028;28;20138;-70
2023/07/08 12:10:39;;;;;;;6.32;3.22;;;30.20;51.30;;;;;;5047551;28;20164;-71
2023/07/08 12:13:17;;;;;;;6.32;2.75;;;30.20;50.90;;;;;;5035025;28;20078;-68
2023/07/08 12:15:43;;;;;;;6.28;2.83;;;30.20;50.20;;;;;;5025870;28;20051;-69
2023/07/08 12:18:18;;;;;;;3.88;2.70;;;30.10;50.10;;;;;;5062156;28;20109;-66
2023/07/08 12:20:57;;;;;;;5.57;2.40;;;30.20;50.50;;;;;;5029286;28;20054;-77
2023/07/08 12:23:25;;;;;;;4.38;2.53;;;30.20;49.50;;;;;;5046113;28;20044;-70
2023/07/08 12:25:52;;;;;;;6.43;2.72;;;30.30;50.40;;;;;;5029497;28;20040;-73
2023/07/08 12:28:20;;;;;;;4.72;2.25;;;30.20;50.70;;;;;;5029058;28;20382;-71
2023/07/08 12:30:47;;;;;;;4.35;2.60;;;30.20;51.70;;;;;;5044613;28;20056;-64
2023/07/08 12:33:21;;;;;;;4.47;2.60;;;30.30;51.30;;;;;;5028576;28;20087;-69
2023/07/08 12:35:48;;;;;;;3.55;2.40;;;30.30;50.40;;;;;;5017608;28;20060;-68
2023/07/08 12:38:38;;;;;;;4.60;2.53;;;30.30;50.80;;;;;;5025144;28;20541;-63
2023/07/08 12:41:15;;;;;;;5.72;2.40;;;30.40;51.10;;;;;;5024741;28;20055;-70
2023/07/08 12:43:42;;;;;;;6.35;3.10;;;30.40;50.30;;;;;;5040137;28;20051;-62
2023/07/08 12:46:13;;;;;;;5.00;3.03;;;30.40;50.80;;;;;;5022801;28;20448;-71
2023/07/08 12:48:41;;;;;;;5.57;3.42;;;30.40;49.60;;;;;;5045884;28;20059;-71
2023/07/08 12:51:15;;;;;;;5.95;2.90;;;30.40;50.00;;;;;;5022654;28;20071;-70
2023/07/08 12:53:42;;;;;;;4.90;3.15;;;30.40;49.10;;;;;;5040811;28;20139;-73
2023/07/08 12:56:09;;;;;;;5.03;2.90;;;30.40;49.50;;;;;;5039646;28;20051;-67
2023/07/08 12:58:44;;;;;;;4.82;3.53;;;28.80;48.50;;;;;;5026619;28;20056;-71
2023/07/08 13:01:19;;;;;;;5.10;2.75;;;30.40;50.10;;;;;;5035403;28;20218;-63
2023/07/08 13:03:49;;;;;;;7.10;3.33;;;30.50;49.90;;;;;;5029581;28;20056;-65
2023/07/08 13:06:17;;;;;;;5.03;3.10;;;30.50;50.00;;;;;;5018979;28;20060;-71
2023/07/08 13:09:24;;;;;;;6.50;3.83;;;28.50;49.30;;;;;;4992482;28;20060;-67
2023/07/08 13:11:52;;;;;;;9.60;3.17;;;30.50;49.10;;;;;;5008775;28;20427;-70
2023/07/08 13:14:43;;;;;;;5.13;3.17;;;30.50;48.40;;;;;;4973781;28;20066;-70
2023/07/08 13:17:14;;;;;;;6.05;3.00;;;30.60;49.30;;;;;;4966035;28;20050;-72
2023/07/08 13:19:42;;;;;;;4.25;3.40;;;30.60;49.90;;;;;;4944241;28;20104;-69
2023/07/08 13:22:15;;;;;;;7.22;3.53;;;30.60;49.50;;;;;;4939450;28;20288;-67
2023/07/08 13:24:42;;;;;;;11.25;4.03;;;28.70;48.70;;;;;;4931807;28;20153;-70
2023/07/08 13:27:24;;;;;;;11.80;4.72;;;30.70;49.40;;;;;;4927578;28;20062;-71
2023/07/08 13:30:08;;;;;;;8.63;4.20;;;30.20;47.20;;;;;;4931551;28;20066;-66
2023/07/08 13:32:37;;;;;;;6.55;3.45;;;30.70;48.10;;;;;;4954347;28;20062;-76
2023/07/08 13:35:04;;;;;;;4.85;3.33;;;30.70;47.70;;;;;;4948206;28;20059;-70
2023/07/08 13:37:32;;;;;;;5.20;3.53;;;30.60;48.10;;;;;;4962896;28;20101;-69
2023/07/08 13:39:57;;;;;;;5.20;3.67;;;30.70;49.00;;;;;;4933344;28;20141;-69
2023/07/08 13:42:23;;;;;;;6.95;3.85;;;30.70;48.60;;;;;;4951569;28;20141;-69
2023/07/08 13:44:49;;;;;;;5.80;3.80;;;30.70;48.90;;;;;;4947794;28;20050;-78
2023/07/08 13:47:28;;;;;;;9.68;3.97;;;30.70;48.30;;;;;;4990320;28;20060;-70
2023/07/08 13:50:22;;;;;;;5.25;3.42;;;30.80;47.90;;;;;;5032040;28;20122;-73
2023/07/08 13:52:54;;;;;;;7.30;3.80;;;30.80;49.10;;;;;;5029315;28;20060;-65
2023/07/08 13:55:21;;;;;;;6.90;3.40;;;30.80;48.60;;;;;;5015656;28;20053;-71
2023/07/08 13:58:00;;;;;;;10.15;4.43;;;30.80;49.00;;;;;;5031147;28;20386;-74
2023/07/08 14:00:30;;;;;;;5.28;3.55;;;30.70;48.00;;;;;;5028848;28;20102;-68
2023/07/08 14:02:56;;;;;;;5.00;3.80;;;30.80;48.70;;;;;;5018507;28;20056;-73
2023/07/08 14:48:36;;;;;;;4.25;3.13;;;31.10;47.90;;;;;;6112229;22;1455818;-68
2023/07/08 14:51:03;;;;;;;5.93;4.32;;;31.00;50.00;;;;;;6151071;23;20371;-67
2023/07/08 14:53:32;;;;;;;7.05;4.82;;;31.00;47.90;;;;;;6153437;23;20108;-68
2023/07/08 14:56:00;;;;;;;5.45;4.22;;;30.90;47.10;;;;;;6153286;23;20386;-68
2023/07/08 14:58:33;;;;;;;4.68;3.78;;;30.90;47.50;;;;;;6153632;23;20025;-65
2023/07/08 15:01:18;;;;;;;5.75;4.03;;;30.90;47.30;;;;;;6152985;23;20021;-65
2023/07/08 15:03:47;;;;;;;7.43;4.13;;;30.90;47.60;;;;;;6106652;23;20334;-65
2023/07/08 15:06:13;;;;;;;7.10;4.15;;;30.90;46.70;;;;;;6154650;23;20305;-70
2023/07/08 15:08:39;;;;;;;6.05;3.60;;;30.80;48.40;;;;;;6152689;23;20186;-68
2023/07/08 15:11:06;;;;;;;7.32;4.60;;;30.80;48.60;;;;;;6152080;23;20101;-71
2023/07/08 15:13:34;;;;;;;5.80;3.60;;;30.80;48.00;;;;;;6127570;23;20025;-66
2023/07/08 15:16:00;;;;;;;7.13;4.22;;;30.80;47.90;;;;;;6127804;23;20025;-66
2023/07/08 15:18:26;;;;;;;7.50;4.38;;;30.80;47.50;;;;;;6127086;23;20023;-71
2023/07/08 15:20:52;;;;;;;5.28;4.07;;;30.90;47.90;;;;;;6127628;23;20024;-69
2023/07/08 15:23:19;;;;;;;7.15;4.93;;;30.90;47.20;;;;;;6152212;23;20075;-68
2023/07/08 15:25:47;;;;;;;5.38;4.03;;;30.90;47.10;;;;;;6127461;23;20025;-67
2023/07/08 15:28:47;;;;;;;6.43;4.70;;;30.90;47.60;;;;;;6127227;23;20108;-68
2023/07/08 15:31:15;;;;;;;6.70;4.28;;;30.80;46.70;;;;;;6125758;23;20241;-69
2023/07/08 15:33:42;;;;;;;6.18;4.05;;;30.80;46.60;;;;;;6101876;23;20057;-69
2023/07/08 15:36:11;;;;;;;7.03;4.78;;;31.20;47.00;;;;;;6126150;23;20024;-72
2023/07/08 15:38:37;;;;;;;5.57;4.32;;;30.80;47.50;;;;;;6125631;23;20025;-74
2023/07/08 15:41:05;;;;;;;7.10;4.28;;;30.80;47.90;;;;;;6149856;23;20025;-69
2023/07/08 15:43:31;;;;;;;7.50;4.13;;;30.80;48.80;;;;;;6149591;23;20021;-70
2023/07/08 15:46:00;;;;;;;6.50;4.05;;;30.70;46.10;;;;;;6172952;23;20025;-68
2023/07/08 15:48:26;;;;;;;7.07;4.10;;;30.70;46.20;;;;;;6119163;23;20075;-62
2023/07/08 15:50:52;;;;;;;7.68;4.45;;;30.70;47.30;;;;;;6119053;23;20025;-66
2023/07/08 15:53:18;;;;;;;8.27;3.63;;;30.60;45.90;;;;;;6117147;23;20017;-66
2023/07/08 15:55:46;;;;;;;8.57;4.85;;;30.60;46.00;;;;;;6119134;23;20025;-70
2023/07/08 15:58:27;;;;;;;6.38;4.47;;;30.60;45.40;;;;;;6143710;23;20017;-74
2023/07/08 16:00:54;;;;;;;6.38;4.75;;;30.60;47.00;;;;;;6118924;23;20707;-68
2023/07/08 16:03:24;;;;;;;7.38;4.32;;;30.50;46.70;;;;;;6144034;23;20460;-70
2023/07/08 16:05:51;;;;;;;11.15;4.20;;;30.50;46.10;;;;;;6120439;23;20021;-67
2023/07/08 16:08:17;;;;;;;10.13;4.55;;;30.50;46.70;;;;;;6144120;23;20021;-68
2023/07/08 16:10:53;;;;;;;8.15;4.30;;;30.50;48.30;;;;;;6119135;23;20032;-72
2023/07/08 16:13:23;;;;;;;6.00;4.70;;;30.60;47.80;;;;;;6146558;23;20337;-71
2023/07/08 16:15:53;;;;;;;7.20;4.18;;;30.60;47.00;;;;;;6147192;23;20021;-72
2023/07/08 16:18:20;;;;;;;6.95;3.85;;;30.50;48.10;;;;;;6123648;23;20025;-69
2023/07/08 16:20:47;;;;;;;6.70;4.65;;;30.50;49.10;;;;;;6120016;23;20523;-64
2023/07/08 16:23:13;;;;;;;5.65;4.28;;;30.50;48.30;;;;;;6119013;23;20084;-70
2023/07/08 16:25:51;;;;;;;8.20;4.88;;;30.50;48.30;;;;;;6144075;23;20028;-69
2023/07/08 16:28:40;;;;;;;7.10;4.70;;;30.50;49.10;;;;;;6170710;23;20365;-66
2023/07/08 16:31:10;;;;;;;7.43;4.40;;;30.50;48.90;;;;;;6144991;23;20021;-66
2023/07/08 16:33:36;;;;;;;6.00;5.05;;;30.50;48.60;;;;;;6146174;23;20024;-66
2023/07/08 16:36:03;;;;;;;12.40;4.97;;;30.50;48.40;;;;;;6096600;23;20025;-69
2023/07/08 16:38:29;;;;;;;6.25;4.70;;;30.40;47.90;;;;;;6143455;23;20029;-67
2023/07/08 16:40:55;;;;;;;11.80;4.85;;;30.40;48.20;;;;;;6142360;23;20372;-67
2023/07/08 16:43:30;;;;;;;6.97;4.75;;;30.30;49.70;;;;;;6118647;23;20029;-65
2023/07/08 16:45:57;;;;;;;8.27;4.80;;;30.30;50.20;;;;;;6118791;23;20096;-72
2023/07/08 16:48:25;;;;;;;8.82;5.03;;;30.20;50.90;;;;;;6157954;22;20031;-68
2023/07/08 16:50:51;;;;;;;7.85;4.68;;;30.20;50.50;;;;;;6196528;23;20195;-67
2023/07/08 16:53:17;;;;;;;9.27;5.00;;;30.10;51.10;;;;;;6197769;23;20061;-72
2023/07/08 16:55:43;;;;;;;11.13;5.63;;;30.10;50.80;;;;;;6173457;23;20016;-67
2023/07/08 16:58:11;;;;;;;7.30;5.80;;;30.10;51.80;;;;;;6172767;23;20376;-70
2023/07/08 17:00:37;;;;;;;7.80;4.90;;;30.10;52.30;;;;;;6197614;23;20103;-65
2023/07/08 17:03:04;;;;;;;8.02;5.43;;;30.00;52.30;;;;;;6197404;23;20017;-69
2023/07/08 17:05:34;;;;;;;9.45;5.35;;;30.00;52.00;;;;;;6172995;23;20079;-70
2023/07/08 17:08:02;;;;;;;8.70;5.78;;;30.00;50.70;;;;;;6198797;23;20020;-72
2023/07/08 17:10:28;;;;;;;8.35;4.90;;;30.00;50.90;;;;;;6173604;23;20028;-71
2023/07/08 17:12:56;;;;;;;7.07;4.63;;;30.00;51.90;;;;;;6173974;23;20023;-68
2023/07/08 17:15:30;;;;;;;6.50;4.55;;;29.90;52.20;;;;;;6198400;23;20176;-72
2023/07/08 17:18:00;;;;;;;7.78;4.40;;;29.90;52.70;;;;;;6197377;23;20016;-69
2023/07/08 17:20:34;;;;;;;7.70;4.90;;;29.80;53.30;;;;;;6197847;23;20029;-69
2023/07/08 17:23:08;;;;;;;8.63;5.22;;;29.70;54.00;;;;;;6177135;23;20043;-64
2023/07/08 17:25:34;;;;;;;5.80;4.57;;;29.70;54.80;;;;;;6199792;23;20027;-64
2023/07/08 17:28:00;;;;;;;10.60;5.38;;;29.60;56.00;;;;;;6200125;23;20095;-72
2023/07/08 17:30:26;;;;;;;17.45;7.10;;;29.50;56.80;;;;;;6200253;23;20020;-69
2023/07/08 17:32:56;;;;;;;10.77;5.60;;;29.40;57.40;;;;;;6202049;23;20079;-64
2023/07/08 17:35:25;;;;;;;6.97;4.90;;;29.30;57.70;;;;;;6176780;23;20134;-66
2023/07/08 17:37:52;;;;;;;12.05;6.82;;;29.10;57.30;;;;;;6199859;23;20032;-73
2023/07/08 17:40:23;;;;;;;14.32;6.32;;;29.00;57.50;;;;;;6174758;23;20024;-69
2023/07/08 17:42:54;;;;;;;11.07;6.93;;;28.80;58.10;;;;;;6198974;23;20024;-67
2023/07/08 17:45:29;;;;;;;7.70;5.05;;;28.70;58.20;;;;;;6173337;23;20032;-69
2023/07/08 17:47:55;;;;;;;8.05;4.60;;;28.60;58.10;;;;;;6193327;23;20023;-70
2023/07/08 17:50:23;;;;;;;5.85;4.22;;;28.50;58.60;;;;;;6169906;23;20272;-71
2023/07/08 17:52:51;;;;;;;7.70;4.63;;;28.40;58.60;;;;;;6144883;23;20023;-65
2023/07/08 17:55:18;;;;;;;8.10;4.93;;;28.30;58.50;;;;;;6144602;23;20020;-66
2023/07/08 17:57:47;;;;;;;9.98;5.22;;;28.20;58.80;;;;;;6144817;23;20574;-67
2023/07/08 18:00:20;;;;;;;10.88;5.95;;;28.10;59.70;;;;;;6171347;23;20025;-69
2023/07/08 18:02:47;;;;;;;9.27;5.95;;;28.00;60.70;;;;;;6172168;23;20013;-67
2023/07/08 18:05:15;;;;;;;7.70;5.03;;;27.90;61.20;;;;;;6172794;23;20024;-64
2023/07/08 18:07:42;;;;;;;10.93;5.85;;;27.80;61.50;;;;;;6146083;23;20480;-65
2023/07/08 18:10:08;;;;;;;16.30;7.43;;;27.70;61.50;;;;;;6146143;23;20017;-66
2023/07/08 18:12:35;;;;;;;14.00;5.20;;;27.70;61.70;;;;;;6171102;23;20530;-69
2023/07/08 18:15:03;;;;;;;8.98;4.93;;;27.60;61.10;;;;;;6141764;23;20027;-68
2023/07/08 18:17:29;;;;;;;8.00;5.40;;;27.50;60.90;;;;;;6166882;23;20359;-69
2023/07/08 18:19:57;;;;;;;6.80;4.53;;;27.40;60.80;;;;;;6169028;23;20476;-67
2023/07/08 18:22:24;;;;;;;8.15;4.45;;;27.40;61.10;;;;;;6166571;23;20492;-62
2023/07/08 18:24:49;;;;;;;11.18;4.80;;;27.30;62.10;;;;;;6143025;23;20029;-59
2023/07/08 18:27:15;;;;;;;9.13;4.22;;;27.20;63.30;;;;;;6168957;23;20075;-66
2023/07/08 18:29:42;;;;;;;9.15;4.88;;;27.20;64.10;;;;;;6142667;23;20036;-70
2023/07/08 18:32:10;;;;;;;8.60;4.75;;;27.10;64.80;;;;;;6167385;23;20069;-69
2023/07/08 18:34:36;;;;;;;11.75;5.95;;;27.00;65.30;;;;;;6169605;23;20025;-69
2023/07/08 18:37:03;;;;;;;13.15;6.13;;;26.90;65.90;;;;;;6171623;23;20021;-61
2023/07/08 18:39:29;;;;;;;11.95;6.43;;;26.80;66.30;;;;;;6169452;23;20352;-69
2023/07/08 18:41:55;;;;;;;15.43;7.68;;;26.70;67.10;;;;;;6168850;23;20057;-61
2023/07/08 18:44:28;;;;;;;14.23;6.80;;;26.60;67.30;;;;;;6168838;23;20064;-66
2023/07/08 18:46:55;;;;;;;17.00;7.30;;;26.60;67.40;;;;;;6168817;23;20032;-69
2023/07/08 18:49:23;;;;;;;13.20;6.75;;;26.50;67.60;;;;;;6167807;23;20017;-68
2023/07/08 18:51:50;;;;;;;16.95;6.85;;;26.40;68.00;;;;;;6168163;23;20024;-74
2023/07/08 18:54:21;;;;;;;10.10;6.28;;;26.30;68.50;;;;;;6143668;23;20096;-66
2023/07/08 18:56:48;;;;;;;12.40;6.25;;;26.20;69.30;;;;;;6119843;23;20024;-72
2023/07/08 18:59:14;;;;;;;15.82;6.55;;;26.10;69.20;;;;;;6145109;23;20364;-70
2023/07/08 19:01:42;;;;;;;15.00;7.40;;;26.00;69.30;;;;;;6142497;23;20364;-65
2023/07/08 19:04:26;;;;;;;14.93;6.53;;;26.00;69.10;;;;;;6141922;23;20024;-67
2023/07/08 19:06:54;;;;;;;14.20;6.88;;;25.90;69.60;;;;;;6142747;23;20314;-68
2023/07/08 19:09:20;;;;;;;11.95;7.25;;;25.80;69.80;;;;;;6167378;23;20344;-68
2023/07/08 19:11:46;;;;;;;15.70;6.47;;;25.70;69.70;;;;;;6118068;23;20394;-66
2023/07/08 19:14:14;;;;;;;10.85;6.68;;;25.60;69.20;;;;;;6168027;23;20349;-70
2023/07/08 19:16:39;;;;;;;11.88;5.53;;;25.60;69.10;;;;;;6170391;23;20527;-65
2023/07/08 19:19:05;;;;;;;10.73;6.22;;;25.60;69.10;;;;;;6169205;23;20060;-65
2023/07/08 19:21:32;;;;;;;11.25;6.82;;;25.50;69.00;;;;;;6167875;23;20463;-67
2023/07/08 19:24:00;;;;;;;11.80;6.22;;;25.40;68.90;;;;;;6168171;23;20079;-67
2023/07/08 19:26:27;;;;;;;10.88;6.07;;;25.40;69.30;;;;;;6142847;23;20395;-64
2023/07/08 19:28:55;;;;;;;6.75;5.22;;;25.30;69.40;;;;;;6168065;23;20573;-64
2023/07/08 19:31:31;;;;;;;8.43;4.45;;;25.20;69.70;;;;;;6144941;23;20024;-71
2023/07/08 19:34:02;;;;;;;8.43;5.25;;;25.10;69.90;;;;;;6169510;23;20400;-69
2023/07/08 19:36:31;;;;;;;6.85;5.05;;;25.10;70.00;;;;;;6144696;23;20500;-71
2023/07/08 19:38:57;;;;;;;7.15;5.38;;;25.00;69.90;;;;;;6168081;23;20406;-67
2023/07/08 19:41:37;;;;;;;8.68;5.55;;;25.00;70.20;;;;;;6168680;23;20515;-68
2023/07/08 19:44:12;;;;;;;7.78;5.72;;;24.90;71.10;;;;;;6143870;23;20020;-70
2023/07/08 19:46:38;;;;;;;8.85;5.47;;;24.80;71.30;;;;;;6144423;23;20323;-74
2023/07/08 19:49:04;;;;;;;10.32;5.05;;;24.70;71.60;;;;;;6167670;23;20084;-66
2023/07/08 19:51:31;;;;;;;7.82;5.13;;;24.60;71.80;;;;;;6143625;23;20024;-74
2023/07/08 19:53:56;;;;;;;8.32;5.03;;;24.50;72.00;;;;;;6142134;23;20025;-67
2023/07/08 19:56:25;;;;;;;9.35;6.85;;;24.40;71.80;;;;;;6167145;23;20076;-67
2023/07/08 19:58:51;;;;;;;10.25;7.18;;;24.30;71.60;;;;;;6142158;23;20028;-76
2023/07/08 20:01:18;;;;;;;11.35;8.23;;;24.20;71.60;;;;;;6166099;23;20380;-71
2023/07/08 20:03:43;;;;;;;10.52;8.10;;;24.20;71.70;;;;;;6141952;23;20555;-68
2023/07/08 20:06:12;;;;;;;11.38;7.97;;;24.20;71.70;;;;;;6166787;23;20021;-73
2023/07/08 20:08:37;;;;;;;12.75;8.10;;;24.10;71.80;;;;;;6141618;23;20447;-67
2023/07/08 20:11:04;;;;;;;9.23;7.47;;;26.30;73.50;;;;;;6167229;23;20123;-70
2023/07/08 20:13:31;;;;;;;9.90;7.00;;;24.00;72.50;;;;;;6142173;23;20091;-68
2023/07/08 20:15:59;;;;;;;10.27;6.55;;;23.90;72.40;;;;;;6144053;23;20096;-70
2023/07/08 20:18:32;;;;;;;10.50;6.75;;;23.90;72.20;;;;;;6169649;23;20380;-71
2023/07/08 20:20:59;;;;;;;8.98;6.72;;;23.80;72.40;;;;;;6144080;23;20028;-70
2023/07/08 20:23:27;;;;;;;10.90;6.50;;;23.70;73.10;;;;;;6168903;23;20531;-69
2023/07/08 20:25:53;;;;;;;9.13;5.45;;;23.70;73.70;;;;;;6142557;23;20037;-69
2023/07/08 20:28:26;;;;;;;7.10;5.13;;;23.60;74.00;;;;;;6167776;23;20340;-70
2023/07/08 20:30:54;;;;;;;10.82;5.20;;;23.50;74.00;;;;;;6168349;23;20021;-74
2023/07/08 20:33:22;;;;;;;6.53;4.50;;;23.50;74.10;;;;;;6165587;23;20364;-70
2023/07/08 20:35:49;;;;;;;8.25;5.07;;;23.40;74.30;;;;;;6140253;23;20025;-68
2023/07/08 20:38:17;;;;;;;8.10;5.25;;;23.40;74.80;;;;;;6161881;23;20044;-75
2023/07/08 20:40:43;;;;;;;8.60;5.68;;;23.30;75.50;;;;;;6162223;23;20025;-73
2023/07/08 20:43:19;;;;;;;7.80;5.70;;;23.20;76.00;;;;;;6137874;23;20124;-72
2023/07/08 20:45:48;;;;;;;10.43;6.22;;;23.10;76.50;;;;;;6138564;23;20072;-68
2023/07/08 20:48:22;;;;;;;9.30;6.45;;;22.90;76.20;;;;;;6185376;23;20344;-64
2023/07/08 20:50:49;;;;;;;11.27;6.00;;;22.80;76.40;;;;;;6226081;23;20031;-69
2023/07/08 20:53:15;;;;;;;12.60;7.15;;;23.40;77.00;;;;;;6174330;23;20024;-73
2023/07/08 20:55:43;;;;;;;10.05;6.40;;;22.60;76.70;;;;;;6200733;23;20547;-70
2023/07/08 20:58:21;;;;;;;12.73;6.43;;;22.50;76.90;;;;;;6201720;23;20086;-62
2023/07/08 21:00:48;;;;;;;9.50;7.55;;;22.50;77.00;;;;;;6201857;23;20024;-74
2023/07/08 21:03:18;;;;;;;9.85;7.05;;;22.40;76.80;;;;;;6174813;23;20027;-68
2023/07/08 21:05:48;;;;;;;8.48;6.60;;;22.30;76.90;;;;;;6226829;23;20027;-71
2023/07/08 21:08:29;;;;;;;9.10;7.00;;;22.30;77.00;;;;;;6199670;23;20024;-68
2023/07/08 21:10:56;;;;;;;13.70;6.28;;;22.20;77.20;;;;;;6149340;23;20575;-70
2023/07/08 21:13:22;;;;;;;8.40;6.32;;;22.10;77.30;;;;;;6173431;23;20101;-66
2023/07/08 21:15:49;;;;;;;8.25;6.85;;;22.00;77.30;;;;;;6173686;23;20345;-67
2023/07/08 21:18:19;;;;;;;8.77;6.25;;;22.00;77.40;;;;;;6173212;23;20021;-69
2023/07/08 21:20:45;;;;;;;9.98;5.82;;;21.90;77.80;;;;;;6198428;23;20494;-67
2023/07/08 21:23:17;;;;;;;11.75;6.10;;;21.80;77.90;;;;;;6226015;23;20055;-70
2023/07/08 21:25:50;;;;;;;;;;;21.70;78.10;;;;;;6173593;23;20031;-66
2023/07/08 21:28:30;;;;;;;9.75;6.22;;;21.60;78.00;;;;;;6172588;23;19926;-72
2023/07/08 21:30:59;;;;;;;10.07;6.15;;;21.50;78.60;;;;;;6225239;23;20499;-70
2023/07/08 21:33:26;;;;;;;9.05;5.47;;;21.40;78.90;;;;;;6224066;23;20020;-68
2023/07/08 21:35:52;;;;;;;8.23;5.45;;;21.40;78.80;;;;;;6172131;23;20031;-74
2023/07/08 21:38:19;;;;;;;11.10;5.75;;;21.30;78.30;;;;;;6171890;23;20020;-70
2023/07/08 21:40:48;;;;;;;9.10;6.35;;;21.30;78.20;;;;;;6172482;23;20118;-66
2023/07/08 21:43:20;;;;;;;11.50;6.32;;;21.30;78.20;;;;;;6172016;23;20060;-66
2023/07/08 21:45:46;;;;;;;8.68;5.65;;;21.30;78.00;;;;;;6172501;23;20031;-75
2023/07/08 21:48:13;;;;;;;8.05;6.05;;;21.20;78.10;;;;;;6196139;23;20355;-64
2023/07/08 21:50:55;;;;;;;8.50;5.50;;;21.20;78.30;;;;;;6171948;23;20031;-76
2023/07/08 21:53:53;;;;;;;9.27;5.80;;;18.80;77.10;;;;;;6196118;23;20074;-73
2023/07/08 21:56:19;;;;;;;12.45;5.78;;;21.10;78.60;;;;;;6104534;23;20113;-63
2023/07/08 21:58:44;;;;;;;10.38;5.90;;;21.00;78.80;;;;;;6128495;23;20638;-72
2023/07/08 22:01:20;;;;;;;8.02;5.57;;;21.00;79.50;;;;;;6080258;23;20052;-68
2023/07/08 22:03:46;;;;;;;9.30;6.15;;;20.70;81.10;;;;;;6079551;23;20017;-75
2023/07/08 22:06:13;;;;;;;10.80;6.63;;;20.70;81.10;;;;;;6081999;23;20385;-69
2023/07/08 22:08:39;;;;;;;12.63;5.93;;;20.70;82.10;;;;;;6081337;23;20351;-67
2023/07/08 22:11:13;;;;;;;10.15;6.60;;;20.60;82.60;;;;;;6104744;23;20473;-67
2023/07/08 22:13:39;;;;;;;10.30;7.20;;;20.50;82.90;;;;;;6105889;23;20487;-67
2023/07/08 22:16:14;;;;;;;10.13;7.00;;;20.50;83.80;;;;;;6080084;23;20535;-70
2023/07/08 22:18:44;;;;;;;11.40;7.65;;;20.40;83.10;;;;;;6081297;23;20184;-68
2023/07/08 22:21:29;;;;;;;8.55;6.53;;;20.40;83.40;;;;;;6080726;23;20265;-69
2023/07/08 22:23:56;;;;;;;10.50;6.88;;;20.30;83.60;;;;;;6081091;23;20021;-72
2023/07/08 22:26:23;;;;;;;9.27;6.05;;;20.30;83.70;;;;;;6089198;23;20342;-69
2023/07/08 22:28:49;;;;;;;8.18;5.53;;;20.20;83.70;;;;;;6171873;23;20028;-71
2023/07/08 22:31:33;;;;;;;11.25;6.00;;;20.20;83.80;;;;;;6223928;23;20447;-71
2023/07/08 22:34:01;;;;;;;7.70;5.43;;;20.20;83.50;;;;;;6171997;23;20035;-65
2023/07/08 22:36:26;;;;;;;8.48;6.00;;;20.20;83.40;;;;;;6196161;23;20031;-69
2023/07/08 22:39:07;;;;;;;10.30;5.93;;;20.10;83.20;;;;;;6171016;23;20020;-70
2023/07/08 22:41:52;;;;;;;9.13;6.03;;;20.10;83.10;;;;;;6172009;23;20625;-68
2023/07/08 22:44:18;;;;;;;8.07;6.15;;;20.10;83.00;;;;;;6223347;23;20020;-71
2023/07/08 22:47:04;;;;;;;11.40;5.80;;;20.10;83.20;;;;;;6224564;23;20524;-74
2023/07/08 22:49:30;;;;;;;8.82;6.45;;;20.10;83.40;;;;;;6193346;23;20067;-71
2023/07/08 22:51:59;;;;;;;11.18;6.63;;;20.00;84.10;;;;;;6196702;23;20498;-68
2023/07/08 22:54:27;;;;;;;10.13;6.90;;;19.90;83.60;;;;;;6172806;23;20020;-68
2023/07/08 22:56:53;;;;;;;9.60;6.43;;;19.90;83.80;;;;;;6198957;23;20024;-71
2023/07/08 22:59:19;;;;;;;9.50;6.53;;;19.90;83.90;;;;;;6227977;23;20016;-67
2023/07/08 23:01:45;;;;;;;9.55;6.10;;;19.90;84.00;;;;;;6199331;23;20047;-68
2023/07/08 23:04:10;;;;;;;8.10;6.00;;;19.90;84.50;;;;;;6173312;23;20584;-70
2023/07/08 23:06:37;;;;;;;7.85;5.45;;;19.80;84.80;;;;;;6174584;23;20024;-72
2023/07/08 23:09:03;;;;;;;7.82;6.10;;;19.80;84.70;;;;;;6199065;23;20020;-68
2023/07/08 23:11:29;;;;;;;9.00;6.28;;;19.80;83.90;;;;;;6174290;23;20031;-69
2023/07/08 23:13:55;;;;;;;9.38;5.85;;;19.90;83.70;;;;;;6199515;23;20024;-74
2023/07/08 23:16:29;;;;;;;9.38;6.35;;;19.90;83.70;;;;;;6226822;23;20067;-69
2023/07/08 23:18:56;;;;;;;11.77;6.32;;;19.90;83.70;;;;;;6174156;23;20031;-71
2023/07/08 23:21:24;;;;;;;10.75;6.43;;;19.90;83.40;;;;;;6174346;23;20024;-71
2023/07/08 23:23:50;;;;;;;9.07;6.32;;;22.30;84.60;;;;;;6198856;23;20016;-67
2023/07/08 23:26:32;;;;;;;8.00;5.78;;;20.00;83.20;;;;;;6173554;23;20460;-69
2023/07/08 23:28:59;;;;;;;;;;;19.90;83.10;;;;;;6174020;23;20039;-68
2023/07/08 23:31:27;;;;;;;9.63;6.07;;;19.90;83.60;;;;;;6199060;23;20035;-72
2023/07/08 23:33:53;;;;;;;11.70;6.82;;;19.80;83.90;;;;;;6174495;23;20020;-72
2023/07/08 23:36:22;;;;;;;13.23;7.35;;;19.80;84.70;;;;;;6199673;23;20225;-70
2023/07/08 23:38:50;;;;;;;7.60;6.18;;;19.70;85.70;;;;;;6201306;23;20122;-70
2023/07/08 23:41:17;;;;;;;10.70;6.72;;;19.60;86.30;;;;;;6200923;23;20019;-67
2023/07/08 23:43:44;;;;;;;9.15;6.15;;;19.60;86.80;;;;;;6199532;23;20117;-69
2023/07/08 23:46:19;;;;;;;10.88;6.57;;;19.50;86.60;;;;;;6200728;23;20470;-71
2023/07/08 23:48:45;;;;;;;8.38;6.43;;;19.50;86.90;;;;;;6227822;23;20138;-72
2023/07/08 23:51:11;;;;;;;9.43;6.53;;;19.50;87.10;;;;;;6201621;23;20491;-73
2023/07/08 23:53:39;;;;;;;9.55;7.53;;;19.40;87.10;;;;;;6201059;23;20157;-73
2023/07/08 23:56:11;;;;;;;7.25;6.05;;;19.50;86.90;;;;;;6200820;23;20456;-73
2023/07/08 23:58:37;;;;;;;;;;;19.50;86.90;;;;;;6201922;23;20665;-72
